Terminal Aerodrome Forecast
Issued by NWS

Home | Current Version | Previous Version | Text Only | Print | Product List | Glossary On
Versions: 1 2 3 4 5 6 7 8 9 10 11 12 13 14 15 16 17 18
000
FTUS43 KIND 042320
TAFBMG
TAF
KBMG 042320Z 0500/0524 VRB02KT P6SM SCT060 BKN120
      TEMPO 0500/0501 5SM TSRA BKN050CB
     FM050800 00000KT 4SM BR SCT120
      TEMPO 0509/0511 2SM BR
     FM051300 25003KT P6SM SCT120
     FM051500 24004KT P6SM SCT030
     FM051800 25005KT P6SM SCT040=

USA.gov is the U.S. government's official web portal to all federal, state and local government web resources and services.